Terminal Aerodrome Forecast
Issued by NWS

Home | Current Version | Previous Version | Text Only | Print | Product List | Glossary On
Versions: 1 2 3 4 5 6 7 8 9 10 11 12 13 14 15 16 17 18
000
FTUS43 KGLD 271141 AAD
TAFMCK
TAF AMD
KMCK 271141Z 2712/2812 04007KT P6SM OVC020
     FM271700 05008KT 6SM -SHRA BR OVC015
     FM272100 03010KT 6SM -TSRA BKN025CB
     FM280400 36007KT P6SM VCSH BKN060
     FM280700 35007KT P6SM BKN050=

USA.gov is the U.S. government's official web portal to all federal, state and local government web resources and services.